createdAt,value
2022-10-31T00:01:30.015Z,13.30
2022-10-31T00:03:57.237Z,13.30
2022-10-31T00:06:24.850Z,13.30
2022-10-31T00:09:01.707Z,13.30
2022-10-31T00:11:29.183Z,13.30
2022-10-31T00:13:56.340Z,13.30
2022-10-31T00:16:26.639Z,13.20
2022-10-31T00:19:00.505Z,13.30
2022-10-31T00:21:28.914Z,13.20
2022-10-31T00:23:56.068Z,13.20
2022-10-31T00:26:23.221Z,13.20
2022-10-31T00:28:50.397Z,13.20
2022-10-31T00:31:18.018Z,13.20
2022-10-31T00:33:45.362Z,13.20
2022-10-31T00:36:16.708Z,13.20
2022-10-31T00:38:45.119Z,13.20
2022-10-31T00:41:14.008Z,13.20
2022-10-31T00:43:41.345Z,13.20
2022-10-31T00:46:08.519Z,13.20
2022-10-31T00:48:35.756Z,13.20
2022-10-31T00:51:02.947Z,13.20
2022-10-31T00:53:29.954Z,13.10
2022-10-31T00:55:57.133Z,13.10
2022-10-31T00:58:24.317Z,13.10
2022-10-31T01:00:57.684Z,13.10
2022-10-31T01:03:31.806Z,13.10
2022-10-31T01:06:08.248Z,13.10
2022-10-31T01:08:37.905Z,13.10
2022-10-31T01:11:21.713Z,13.10
2022-10-31T01:13:51.867Z,13.00
2022-10-31T01:16:23.529Z,12.90
2022-10-31T01:18:51.309Z,12.90
2022-10-31T01:21:28.252Z,12.90
2022-10-31T01:23:56.760Z,12.80
2022-10-31T01:26:27.317Z,12.80
2022-10-31T01:28:58.281Z,12.80
2022-10-31T01:31:33.095Z,12.70
2022-10-31T01:34:00.809Z,12.70
2022-10-31T01:36:33.286Z,12.70
2022-10-31T01:39:07.884Z,12.70
2022-10-31T01:41:40.281Z,12.60
2022-10-31T01:44:16.428Z,12.60
2022-10-31T01:46:51.877Z,12.60
2022-10-31T01:49:50.644Z,12.60
2022-10-31T01:52:31.316Z,12.60
2022-10-31T01:55:07.163Z,12.50
2022-10-31T01:57:39.093Z,12.50
2022-10-31T02:00:09.781Z,12.40
2022-10-31T02:02:37.510Z,12.40
2022-10-31T02:05:11.078Z,12.40
2022-10-31T02:08:30.890Z,12.40
2022-10-31T02:10:59.505Z,12.40
2022-10-31T02:13:27.295Z,12.30
2022-10-31T02:15:59.095Z,12.30
2022-10-31T02:18:30.997Z,12.30
2022-10-31T02:21:18.534Z,12.30
2022-10-31T02:24:25.296Z,12.30
2022-10-31T02:27:12.804Z,12.30
2022-10-31T02:30:18.185Z,12.20
2022-10-31T02:32:53.193Z,12.20
2022-10-31T02:36:07.257Z,12.20
2022-10-31T02:39:10.841Z,12.10
2022-10-31T02:42:29.116Z,12.10
2022-10-31T02:45:02.247Z,12.00
2022-10-31T02:47:34.980Z,12.00
2022-10-31T02:50:15.309Z,12.00
2022-10-31T02:52:42.483Z,12.00
2022-10-31T02:55:27.791Z,11.90
2022-10-31T02:58:11.394Z,11.90
2022-10-31T03:01:08.591Z,11.90
2022-10-31T03:04:02.828Z,11.90
2022-10-31T03:07:30.359Z,11.90
2022-10-31T03:10:34.857Z,11.90
2022-10-31T03:13:42.772Z,11.90
2022-10-31T03:16:41.835Z,11.90
2022-10-31T03:19:29.052Z,11.90
2022-10-31T03:22:20.841Z,11.90
2022-10-31T03:24:52.159Z,11.90
2022-10-31T03:27:26.715Z,11.90
2022-10-31T03:30:04.080Z,11.90
2022-10-31T03:32:51.185Z,11.90
2022-10-31T03:35:22.263Z,11.90
2022-10-31T03:37:53.055Z,11.90
2022-10-31T03:40:24.540Z,11.90
2022-10-31T03:43:02.291Z,11.90
2022-10-31T03:45:32.128Z,11.90
2022-10-31T03:48:02.765Z,11.90
2022-10-31T03:50:42.826Z,11.90
2022-10-31T03:53:23.526Z,11.90
2022-10-31T03:56:19.303Z,11.90
2022-10-31T03:59:19.548Z,11.90
2022-10-31T04:01:54.276Z,11.90
2022-10-31T04:04:22.101Z,11.80
2022-10-31T04:06:51.544Z,11.80
2022-10-31T04:09:20.676Z,11.80
2022-10-31T04:11:53.325Z,11.80
2022-10-31T04:14:21.665Z,11.80
2022-10-31T04:16:48.895Z,11.80
2022-10-31T04:19:16.559Z,11.80
2022-10-31T04:21:44.460Z,11.80
2022-10-31T04:24:12.138Z,11.70
2022-10-31T04:26:39.464Z,11.70
2022-10-31T04:29:06.556Z,11.70
2022-10-31T04:31:33.669Z,11.70
2022-10-31T04:34:00.823Z,11.70
2022-10-31T04:36:27.866Z,11.70
2022-10-31T04:38:55.140Z,11.70
2022-10-31T04:41:22.140Z,11.70
2022-10-31T04:43:49.535Z,11.70
2022-10-31T04:46:16.652Z,11.60
2022-10-31T04:48:43.854Z,11.60
2022-10-31T04:51:10.974Z,11.60
2022-10-31T04:53:39.241Z,11.60
2022-10-31T04:56:06.858Z,11.60
2022-10-31T04:58:33.945Z,11.50
2022-10-31T05:01:01.347Z,11.50
2022-10-31T05:03:28.563Z,11.50
2022-10-31T05:05:55.684Z,11.50
2022-10-31T05:08:22.764Z,11.40
2022-10-31T05:10:49.872Z,11.40
2022-10-31T05:13:17.124Z,11.40
2022-10-31T05:15:44.239Z,11.40
2022-10-31T05:18:11.433Z,11.40
2022-10-31T05:20:38.663Z,11.30
2022-10-31T05:23:05.673Z,11.30
2022-10-31T05:25:32.711Z,11.30
2022-10-31T05:28:00.368Z,11.30
2022-10-31T05:30:31.589Z,11.30
2022-10-31T05:32:59.712Z,11.30
2022-10-31T05:35:30.948Z,11.20
2022-10-31T05:37:59.360Z,11.20
2022-10-31T05:40:28.222Z,11.20
2022-10-31T05:42:57.236Z,11.20
2022-10-31T05:45:25.043Z,11.20
2022-10-31T05:47:59.469Z,11.20
2022-10-31T05:50:29.903Z,11.20
2022-10-31T05:53:05.867Z,11.20
2022-10-31T05:55:33.739Z,11.20
2022-10-31T05:58:01.680Z,11.20
2022-10-31T06:00:29.982Z,11.10
2022-10-31T06:03:07.066Z,11.10
2022-10-31T06:05:34.498Z,11.10
2022-10-31T06:08:02.705Z,11.10
2022-10-31T06:10:30.187Z,11.10
2022-10-31T06:12:57.512Z,11.10
2022-10-31T06:15:25.031Z,11.10
2022-10-31T06:18:04.718Z,11.10
2022-10-31T06:20:32.617Z,11.10
2022-10-31T06:23:00.140Z,11.10
2022-10-31T06:25:28.288Z,11.10
2022-10-31T06:27:57.134Z,11.10
2022-10-31T06:30:24.320Z,11.10
2022-10-31T06:32:51.616Z,11.10
2022-10-31T06:35:18.920Z,11.20
2022-10-31T06:37:54.087Z,11.20
2022-10-31T06:40:21.706Z,11.30
2022-10-31T06:42:48.919Z,11.30
2022-10-31T06:45:16.177Z,11.30
2022-10-31T06:48:15.074Z,11.30
2022-10-31T06:50:30.660Z,11.40
2022-10-31T06:52:59.623Z,11.40
2022-10-31T06:55:27.808Z,11.50
2022-10-31T06:58:03.052Z,11.50
2022-10-31T07:00:31.938Z,11.50
2022-10-31T07:03:06.823Z,11.60
2022-10-31T07:05:34.441Z,11.60
2022-10-31T07:08:05.450Z,11.70
2022-10-31T07:10:40.043Z,11.70
2022-10-31T07:13:15.046Z,11.80
2022-10-31T07:15:44.417Z,11.80
2022-10-31T07:18:13.166Z,11.90
2022-10-31T07:20:40.555Z,11.90
2022-10-31T07:23:08.485Z,12.00
2022-10-31T07:25:35.642Z,12.00
2022-10-31T07:28:03.029Z,12.10
2022-10-31T07:30:30.483Z,12.10
2022-10-31T07:32:57.738Z,12.20
2022-10-31T07:35:28.506Z,12.20
2022-10-31T07:37:55.952Z,12.30
2022-10-31T07:40:24.949Z,12.30
2022-10-31T07:42:53.796Z,12.40
2022-10-31T07:45:22.300Z,12.50
2022-10-31T07:47:53.266Z,12.60
2022-10-31T07:50:27.073Z,12.60
2022-10-31T07:53:03.113Z,12.70
2022-10-31T07:55:31.420Z,12.80
2022-10-31T07:58:04.737Z,12.80
2022-10-31T08:00:34.788Z,12.90
2022-10-31T08:03:11.129Z,12.90
2022-10-31T08:05:39.128Z,13.00
2022-10-31T08:08:07.178Z,13.10
2022-10-31T08:10:35.041Z,13.10
2022-10-31T08:13:13.645Z,13.20
2022-10-31T08:15:42.809Z,13.30
2022-10-31T08:18:15.033Z,13.40
2022-10-31T08:20:44.076Z,13.50
2022-10-31T08:23:13.097Z,13.60
2022-10-31T08:25:40.909Z,13.60
2022-10-31T08:28:10.258Z,13.70
2022-10-31T08:30:38.597Z,13.80
2022-10-31T08:33:11.608Z,13.90
2022-10-31T08:35:38.924Z,13.90
2022-10-31T08:38:06.606Z,14.00
2022-10-31T08:40:36.076Z,14.10
2022-10-31T08:43:06.610Z,14.20
2022-10-31T08:45:35.334Z,14.20
2022-10-31T08:48:05.948Z,14.30
2022-10-31T08:50:36.906Z,14.40
2022-10-31T08:53:10.728Z,14.50
2022-10-31T08:55:39.722Z,14.60
2022-10-31T08:58:11.754Z,14.70
2022-10-31T09:00:39.440Z,14.80
2022-10-31T09:03:12.385Z,14.90
2022-10-31T09:05:40.093Z,15.00
2022-10-31T09:08:14.797Z,15.10
2022-10-31T09:10:43.870Z,15.20
2022-10-31T09:13:14.734Z,15.40
2022-10-31T09:15:44.800Z,15.50
2022-10-31T09:18:14.420Z,15.70
2022-10-31T09:20:43.301Z,15.90
2022-10-31T09:23:14.444Z,16.10
2022-10-31T09:25:46.252Z,16.30
2022-10-31T09:28:19.627Z,16.40
2022-10-31T09:30:52.546Z,16.60
2022-10-31T09:33:20.404Z,16.80
2022-10-31T09:35:47.763Z,16.90
2022-10-31T09:38:20.431Z,17.10
2022-10-31T09:41:10.122Z,17.20
2022-10-31T09:44:15.359Z,17.40
2022-10-31T09:47:22.332Z,17.60
2022-10-31T09:50:03.997Z,17.80
2022-10-31T09:52:35.285Z,18.00
2022-10-31T09:55:10.304Z,18.20
2022-10-31T09:57:38.745Z,18.30
2022-10-31T10:00:16.900Z,18.50
2022-10-31T10:03:06.432Z,18.70
2022-10-31T10:06:18.807Z,18.80
2022-10-31T10:08:46.353Z,19.00
2022-10-31T10:11:31.304Z,19.20
2022-10-31T10:14:10.225Z,19.30
2022-10-31T10:17:13.468Z,19.50
2022-10-31T10:19:56.701Z,19.60
2022-10-31T10:22:56.306Z,19.80
2022-10-31T10:25:55.309Z,20.00
2022-10-31T10:28:39.316Z,20.10
2022-10-31T10:31:25.656Z,20.30
2022-10-31T10:34:07.826Z,20.40
2022-10-31T10:37:06.288Z,20.50
2022-10-31T10:39:49.116Z,20.60
2022-10-31T10:42:35.931Z,20.70
2022-10-31T10:45:38.580Z,20.80
2022-10-31T10:48:40.578Z,21.00
2022-10-31T10:51:38.824Z,21.10
2022-10-31T10:54:40.027Z,21.20
2022-10-31T10:57:19.129Z,21.30
2022-10-31T10:59:47.540Z,21.40
2022-10-31T11:02:27.163Z,21.40
2022-10-31T11:04:57.996Z,21.50
2022-10-31T11:07:25.529Z,21.60
2022-10-31T11:09:52.512Z,21.70
2022-10-31T11:12:31.074Z,21.80
2022-10-31T11:15:05.020Z,21.90
2022-10-31T11:17:41.334Z,21.90
2022-10-31T11:20:17.930Z,22.00
2022-10-31T11:22:48.745Z,22.20
2022-10-31T11:25:23.770Z,22.20
2022-10-31T11:28:10.668Z,22.30
2022-10-31T11:30:56.157Z,22.40
2022-10-31T11:33:33.124Z,22.50
2022-10-31T11:36:04.709Z,22.50
2022-10-31T11:38:41.667Z,22.60
2022-10-31T11:41:42.343Z,22.70
2022-10-31T11:44:29.200Z,22.70
2022-10-31T11:47:02.888Z,22.80
2022-10-31T11:49:50.554Z,22.90
2022-10-31T11:52:28.684Z,23.00
2022-10-31T11:55:15.045Z,23.10
2022-10-31T11:57:48.422Z,23.10
2022-10-31T12:00:34.474Z,23.30
2022-10-31T12:03:28.617Z,23.40
2022-10-31T12:06:12.313Z,23.40
2022-10-31T12:08:42.486Z,23.50
2022-10-31T12:11:31.828Z,23.60
2022-10-31T12:14:33.155Z,23.70
2022-10-31T12:17:16.137Z,23.70
2022-10-31T12:20:15.303Z,23.80
2022-10-31T12:23:03.904Z,23.90
2022-10-31T12:26:38.102Z,24.00
2022-10-31T12:29:28.278Z,24.10
2022-10-31T12:32:17.209Z,24.20
2022-10-31T12:35:29.543Z,24.20
2022-10-31T12:38:33.944Z,24.20
2022-10-31T12:41:09.604Z,24.30
2022-10-31T12:43:57.382Z,24.30
2022-10-31T12:46:55.557Z,24.30
2022-10-31T12:50:12.820Z,24.40
2022-10-31T12:53:15.491Z,24.40
2022-10-31T12:56:06.760Z,24.50
2022-10-31T12:58:46.702Z,24.50
2022-10-31T13:01:34.534Z,24.50
2022-10-31T13:04:13.020Z,24.60
2022-10-31T13:06:52.278Z,24.60
2022-10-31T13:09:40.073Z,24.60
2022-10-31T13:12:20.345Z,24.50
2022-10-31T13:14:55.803Z,24.50
2022-10-31T13:17:33.156Z,24.50
2022-10-31T13:20:55.963Z,24.40
2022-10-31T13:26:34.462Z,24.30
2022-10-31T13:29:21.798Z,24.20
2022-10-31T13:31:49.229Z,24.20
2022-10-31T13:34:28.020Z,24.10
2022-10-31T13:37:14.979Z,24.00
2022-10-31T13:40:30.685Z,23.90
2022-10-31T13:43:24.708Z,23.80
2022-10-31T13:45:57.060Z,23.70
2022-10-31T13:48:26.861Z,23.60
2022-10-31T13:51:04.862Z,23.50
2022-10-31T13:53:41.985Z,23.40
2022-10-31T13:56:19.345Z,23.30
2022-10-31T13:59:11.507Z,23.20
2022-10-31T14:01:57.411Z,23.10
2022-10-31T14:04:38.585Z,23.00
2022-10-31T14:07:18.662Z,22.90
2022-10-31T14:10:24.018Z,22.80
2022-10-31T14:12:51.712Z,22.70
2022-10-31T14:15:26.194Z,22.60
2022-10-31T14:17:59.425Z,22.50
2022-10-31T14:20:41.162Z,22.50
2022-10-31T14:23:45.516Z,22.40
2022-10-31T14:26:33.426Z,22.30
2022-10-31T14:29:34.893Z,22.20
2022-10-31T14:32:15.664Z,22.20
2022-10-31T14:34:45.037Z,22.10
2022-10-31T14:37:24.491Z,22.00
2022-10-31T14:40:09.716Z,21.90
2022-10-31T14:43:02.041Z,21.90
2022-10-31T14:45:44.408Z,21.80
2022-10-31T14:48:29.486Z,21.80
2022-10-31T14:51:01.149Z,21.70
2022-10-31T14:53:36.403Z,21.70
2022-10-31T14:56:07.082Z,21.60
2022-10-31T14:58:37.099Z,21.50
2022-10-31T15:01:06.080Z,21.50
2022-10-31T15:03:44.110Z,21.40
2022-10-31T15:06:19.581Z,21.40
2022-10-31T15:08:55.790Z,21.30
2022-10-31T15:11:28.554Z,21.30
2022-10-31T15:13:59.218Z,21.30
2022-10-31T15:19:09.005Z,21.20
2022-10-31T15:21:43.934Z,21.10
2022-10-31T15:24:19.488Z,21.10
2022-10-31T15:26:51.807Z,21.10
2022-10-31T15:29:23.686Z,21.00
2022-10-31T15:31:57.125Z,20.90
2022-10-31T15:34:32.176Z,20.90
2022-10-31T15:36:59.300Z,20.80
2022-10-31T15:39:26.532Z,20.80
2022-10-31T15:42:00.901Z,20.70
2022-10-31T15:44:37.909Z,20.70
2022-10-31T15:47:16.905Z,20.60
2022-10-31T15:49:55.139Z,20.60
2022-10-31T15:52:41.172Z,20.50
2022-10-31T15:55:12.073Z,20.40
2022-10-31T15:57:49.205Z,20.40
2022-10-31T16:00:23.329Z,20.30
2022-10-31T16:02:50.603Z,20.30
2022-10-31T16:05:21.097Z,20.20
2022-10-31T16:07:53.310Z,20.10
2022-10-31T16:10:27.785Z,20.00
2022-10-31T16:12:55.564Z,19.90
2022-10-31T16:15:23.151Z,19.80
2022-10-31T16:17:52.546Z,19.80
2022-10-31T16:20:38.729Z,19.70
2022-10-31T16:23:06.168Z,19.60
2022-10-31T16:25:39.463Z,19.50
2022-10-31T16:28:27.128Z,19.50
2022-10-31T16:30:58.975Z,19.40
2022-10-31T16:33:37.403Z,19.30
2022-10-31T16:36:35.347Z,19.30
2022-10-31T16:39:03.867Z,19.20
2022-10-31T16:41:31.311Z,19.20
2022-10-31T16:43:58.512Z,19.10
2022-10-31T16:46:28.447Z,19.00
2022-10-31T16:48:56.187Z,19.00
2022-10-31T16:51:23.202Z,18.90
2022-10-31T16:53:54.457Z,18.80
2022-10-31T16:56:39.811Z,18.80
2022-10-31T16:59:16.060Z,18.70
2022-10-31T17:01:49.033Z,18.60
2022-10-31T17:04:16.621Z,18.60
2022-10-31T17:06:43.914Z,18.50
2022-10-31T17:09:11.216Z,18.40
2022-10-31T17:11:49.384Z,18.40
2022-10-31T17:14:19.296Z,18.30
2022-10-31T17:16:46.543Z,18.30
2022-10-31T17:19:13.595Z,18.30
2022-10-31T17:21:42.186Z,18.20
2022-10-31T17:24:14.323Z,18.20
2022-10-31T17:26:42.169Z,18.10
2022-10-31T17:29:09.439Z,18.10
2022-10-31T17:31:39.300Z,18.10
2022-10-31T17:34:08.611Z,18.10
2022-10-31T17:36:36.542Z,18.00
2022-10-31T17:39:07.521Z,18.00
2022-10-31T17:41:34.782Z,18.00
2022-10-31T17:44:02.217Z,18.00
2022-10-31T17:46:29.460Z,18.00
2022-10-31T17:48:56.696Z,17.90
2022-10-31T17:51:23.860Z,17.90
2022-10-31T17:53:51.174Z,17.90
2022-10-31T17:56:18.341Z,17.90
2022-10-31T17:58:45.849Z,17.90
2022-10-31T18:01:16.733Z,17.90
2022-10-31T18:03:44.493Z,17.80
2022-10-31T18:06:14.450Z,17.80
2022-10-31T18:08:42.245Z,17.80
2022-10-31T18:11:21.576Z,17.80
2022-10-31T18:13:55.343Z,17.80
2022-10-31T18:16:23.213Z,17.70
2022-10-31T18:18:53.626Z,17.70
2022-10-31T18:21:21.662Z,17.70
2022-10-31T18:23:48.787Z,17.60
2022-10-31T18:26:16.054Z,17.60
2022-10-31T18:28:43.184Z,17.60
2022-10-31T18:31:10.573Z,17.60
2022-10-31T18:33:37.964Z,17.50
2022-10-31T18:36:07.272Z,17.50
2022-10-31T18:38:38.661Z,17.50
2022-10-31T18:41:06.320Z,17.40
2022-10-31T18:43:33.738Z,17.40
2022-10-31T18:46:12.276Z,17.40
2022-10-31T18:48:42.218Z,17.30
2022-10-31T18:51:12.232Z,17.30
2022-10-31T18:53:39.307Z,17.20
2022-10-31T18:56:11.380Z,17.20
2022-10-31T18:58:38.606Z,17.10
2022-10-31T19:01:08.544Z,17.10
2022-10-31T19:03:36.600Z,17.00
2022-10-31T19:06:05.160Z,17.00
2022-10-31T19:08:32.648Z,17.00
2022-10-31T19:11:14.713Z,16.90
2022-10-31T19:13:43.776Z,16.90
2022-10-31T19:16:14.905Z,16.90
2022-10-31T19:18:43.529Z,16.80
2022-10-31T19:21:17.038Z,16.80
2022-10-31T19:23:45.650Z,16.70
2022-10-31T19:26:13.643Z,16.70
2022-10-31T19:28:41.986Z,16.60
2022-10-31T19:31:10.460Z,16.60
2022-10-31T19:33:37.694Z,16.50
2022-10-31T19:36:10.425Z,16.50
2022-10-31T19:38:40.820Z,16.50
2022-10-31T19:41:16.651Z,16.40
2022-10-31T19:43:44.391Z,16.40
2022-10-31T19:46:22.282Z,16.30
2022-10-31T19:48:55.661Z,16.30
2022-10-31T19:51:23.049Z,16.20
2022-10-31T19:53:50.160Z,16.20
2022-10-31T19:56:23.933Z,16.10
2022-10-31T19:58:51.005Z,16.10
2022-10-31T20:01:24.027Z,16.00
2022-10-31T20:03:51.924Z,16.00
2022-10-31T20:06:30.628Z,15.90
2022-10-31T20:08:58.296Z,15.90
2022-10-31T20:11:28.024Z,15.90
2022-10-31T20:13:56.864Z,15.80
2022-10-31T20:16:24.251Z,15.80
2022-10-31T20:18:51.495Z,15.70
2022-10-31T20:21:24.965Z,15.60
2022-10-31T20:24:01.830Z,15.60
2022-10-31T20:26:30.982Z,15.60
2022-10-31T20:29:00.192Z,15.50
2022-10-31T20:31:33.020Z,15.40
2022-10-31T20:34:00.589Z,15.40
2022-10-31T20:36:29.618Z,15.30
2022-10-31T20:38:57.349Z,15.20
2022-10-31T20:41:25.308Z,15.10
2022-10-31T20:43:52.851Z,15.10
2022-10-31T20:46:26.246Z,15.00
2022-10-31T20:48:54.707Z,15.00
2022-10-31T20:51:28.721Z,14.90
2022-10-31T20:53:58.139Z,14.90
2022-10-31T20:56:27.960Z,14.80
2022-10-31T20:58:56.545Z,14.70
2022-10-31T21:01:28.011Z,14.60
2022-10-31T21:03:55.584Z,14.60
2022-10-31T21:06:23.797Z,14.50
2022-10-31T21:08:52.099Z,14.50
2022-10-31T21:11:21.960Z,14.40
2022-10-31T21:13:50.492Z,14.40
2022-10-31T21:16:31.188Z,14.40
2022-10-31T21:19:01.280Z,14.30
2022-10-31T21:21:36.253Z,14.30
2022-10-31T21:24:12.123Z,14.30
2022-10-31T21:26:43.789Z,14.20
2022-10-31T21:29:12.658Z,14.20
2022-10-31T21:31:41.258Z,14.10
2022-10-31T21:34:09.291Z,14.10
2022-10-31T21:36:37.064Z,14.10
2022-10-31T21:39:07.473Z,14.00
2022-10-31T21:41:34.772Z,14.00
2022-10-31T21:44:02.260Z,13.90
2022-10-31T21:46:32.441Z,13.90
2022-10-31T21:49:02.389Z,13.90
2022-10-31T21:51:32.946Z,13.90
2022-10-31T21:54:21.039Z,13.80
2022-10-31T21:56:48.468Z,13.80
2022-10-31T21:59:15.582Z,13.70
2022-10-31T22:01:42.892Z,13.70
2022-10-31T22:04:10.480Z,13.60
2022-10-31T22:06:38.210Z,13.60
2022-10-31T22:09:08.067Z,13.60
2022-10-31T22:11:36.163Z,13.60
2022-10-31T22:14:04.487Z,13.60
2022-10-31T22:16:35.919Z,13.60
2022-10-31T22:19:06.011Z,13.50
2022-10-31T22:21:46.654Z,13.50
2022-10-31T22:24:15.212Z,13.60
2022-10-31T22:26:42.455Z,13.50
2022-10-31T22:29:18.733Z,13.50
2022-10-31T22:31:53.525Z,13.60
2022-10-31T22:34:24.591Z,13.60
2022-10-31T22:36:54.636Z,13.60
2022-10-31T22:39:21.865Z,13.60
2022-10-31T22:41:48.981Z,13.60
2022-10-31T22:44:16.186Z,13.60
2022-10-31T22:46:43.339Z,13.60
2022-10-31T22:49:15.115Z,13.60
2022-10-31T22:51:43.359Z,13.60
2022-10-31T22:54:15.440Z,13.60
2022-10-31T22:56:42.696Z,13.60
2022-10-31T22:59:17.164Z,13.60
2022-10-31T23:01:46.042Z,13.50
2022-10-31T23:04:16.193Z,13.50
2022-10-31T23:06:43.700Z,13.50
2022-10-31T23:09:15.892Z,13.50
2022-10-31T23:11:43.492Z,13.40
2022-10-31T23:14:21.024Z,13.40
2022-10-31T23:16:56.702Z,13.40
2022-10-31T23:19:27.818Z,13.40
2022-10-31T23:22:03.088Z,13.40
2022-10-31T23:24:34.226Z,13.30
2022-10-31T23:27:09.262Z,13.30
2022-10-31T23:29:46.884Z,13.30
2022-10-31T23:32:25.164Z,13.40
2022-10-31T23:34:59.161Z,13.40
2022-10-31T23:37:31.702Z,13.40
2022-10-31T23:39:59.021Z,13.50
2022-10-31T23:42:27.841Z,13.50
2022-10-31T23:44:55.148Z,13.50
2022-10-31T23:47:23.260Z,13.60
2022-10-31T23:49:51.025Z,13.60
2022-10-31T23:52:19.113Z,13.70
2022-10-31T23:54:46.337Z,13.70
2022-10-31T23:57:15.395Z,13.70
2022-10-31T23:59:42.524Z,13.70
